createdAt,value
2023-01-19T00:01:22.815Z,-0.40
2023-01-19T00:06:26.845Z,-0.40
2023-01-19T00:11:29.006Z,-0.30
2023-01-19T00:16:31.478Z,-0.20
2023-01-19T00:21:35.212Z,-0.30
2023-01-19T00:26:40.601Z,-0.30
2023-01-19T00:31:42.785Z,-0.30
2023-01-19T00:36:46.546Z,-0.40
2023-01-19T00:42:05.948Z,-0.40
2023-01-19T00:47:08.236Z,-0.40
2023-01-19T00:52:12.448Z,-0.40
2023-01-19T00:57:14.648Z,-0.30
2023-01-19T01:02:16.902Z,-0.40
2023-01-19T01:07:20.630Z,-0.40
2023-01-19T01:12:22.661Z,-0.30
2023-01-19T01:17:28.630Z,-0.40
2023-01-19T01:22:32.293Z,-0.40
2023-01-19T01:27:34.277Z,-0.50
2023-01-19T01:32:36.478Z,-0.50
2023-01-19T01:37:40.073Z,-0.60
2023-01-19T01:42:42.714Z,-0.70
2023-01-19T01:47:48.186Z,-0.60
2023-01-19T01:53:06.104Z,-0.60
2023-01-19T01:58:12.540Z,-0.60
2023-01-19T02:03:14.727Z,-0.50
2023-01-19T02:08:39.322Z,-0.40
2023-01-19T02:13:45.341Z,-0.30
2023-01-19T02:18:47.558Z,-0.30
2023-01-19T02:23:52.816Z,-0.20
2023-01-19T02:28:59.488Z,-0.20
2023-01-19T02:34:03.893Z,-0.20
2023-01-19T02:39:09.726Z,-0.20
2023-01-19T02:44:14.249Z,-0.20
2023-01-19T02:49:16.745Z,-0.30
2023-01-19T02:54:42.664Z,-0.20
2023-01-19T02:59:55.289Z,-0.20
2023-01-19T03:05:08.463Z,-0.20
2023-01-19T03:10:18.920Z,-0.30
2023-01-19T03:15:24.753Z,-0.30
2023-01-19T03:20:29.108Z,-0.30
2023-01-19T03:25:37.106Z,-0.30
2023-01-19T03:30:46.125Z,-0.40
2023-01-19T03:35:52.086Z,-0.40
2023-01-19T03:41:00.339Z,-0.50
2023-01-19T03:46:04.421Z,-0.50
2023-01-19T03:51:08.977Z,-0.50
2023-01-19T03:56:19.709Z,-0.70
2023-01-19T04:01:23.092Z,-0.80
2023-01-19T04:06:25.365Z,-1.10
2023-01-19T04:11:28.665Z,-1.20
2023-01-19T04:16:30.752Z,-1.50
2023-01-19T04:21:33.356Z,-1.70
2023-01-19T04:26:41.166Z,-1.90
2023-01-19T04:31:43.147Z,-1.70
2023-01-19T04:36:45.686Z,-1.20
2023-01-19T04:41:49.221Z,-0.90
2023-01-19T04:46:51.740Z,-0.80
2023-01-19T04:51:54.923Z,-0.70
2023-01-19T04:56:58.966Z,-0.80
2023-01-19T05:02:01.307Z,-0.80
2023-01-19T05:07:03.668Z,-0.80
2023-01-19T05:12:07.806Z,-0.80
2023-01-19T05:17:09.927Z,-0.80
2023-01-19T05:22:12.364Z,-1.00
2023-01-19T05:27:16.221Z,-1.20
2023-01-19T05:32:18.825Z,-1.30
2023-01-19T05:37:20.751Z,-1.50
2023-01-19T05:42:24.309Z,-1.60
2023-01-19T05:47:26.647Z,-1.80
2023-01-19T05:52:28.847Z,-1.90
2023-01-19T05:57:33.341Z,-2.10
2023-01-19T06:02:35.940Z,-2.20
2023-01-19T06:07:38.014Z,-2.30
2023-01-19T06:12:42.746Z,-2.40
2023-01-19T06:17:45.160Z,-2.50
2023-01-19T06:22:48.178Z,-2.60
2023-01-19T06:27:51.811Z,-2.60
2023-01-19T06:32:55.309Z,-2.60
2023-01-19T06:37:57.766Z,-2.70
2023-01-19T06:43:01.423Z,-2.60
2023-01-19T06:48:04.444Z,-2.30
2023-01-19T06:53:06.630Z,-2.10
2023-01-19T06:58:10.682Z,-2.30
2023-01-19T07:03:20.554Z,-2.50
2023-01-19T07:08:22.890Z,-2.50
2023-01-19T07:13:26.423Z,-2.20
2023-01-19T07:18:28.346Z,-2.30
2023-01-19T07:23:30.972Z,-2.10
2023-01-19T07:28:34.835Z,-2.20
2023-01-19T07:33:36.727Z,-2.30
2023-01-19T07:38:38.717Z,-2.30
2023-01-19T07:43:42.589Z,-2.40
2023-01-19T07:48:44.872Z,-2.30
2023-01-19T07:53:47.746Z,-2.10
2023-01-19T07:58:52.664Z,-2.10
2023-01-19T08:03:55.218Z,-1.90
2023-01-19T08:08:57.370Z,-1.90
2023-01-19T08:14:01.576Z,-1.70
2023-01-19T08:19:03.958Z,-1.60
2023-01-19T08:24:06.935Z,-1.50
2023-01-19T08:29:10.853Z,-1.30
2023-01-19T08:34:13.140Z,-1.30
2023-01-19T08:39:15.921Z,-1.20
2023-01-19T08:44:19.820Z,-0.90
2023-01-19T08:49:21.979Z,-0.50
2023-01-19T08:54:24.400Z,-0.10
2023-01-19T08:59:28.144Z,-0.20
2023-01-19T09:04:30.134Z,0.20
2023-01-19T09:09:32.046Z,0.50
2023-01-19T09:14:35.367Z,0.60
2023-01-19T09:19:37.307Z,0.70
2023-01-19T09:24:40.044Z,1.00
2023-01-19T09:29:44.130Z,1.10
2023-01-19T09:34:46.291Z,1.30
2023-01-19T09:39:48.989Z,1.50
2023-01-19T09:44:54.639Z,1.70
2023-01-19T09:50:02.964Z,2.10
2023-01-19T09:55:05.409Z,2.20
2023-01-19T10:00:16.674Z,2.10
2023-01-19T10:05:30.142Z,2.00
2023-01-19T10:10:33.824Z,2.00
2023-01-19T10:15:53.738Z,2.00
2023-01-19T10:21:04.623Z,2.30
2023-01-19T10:26:13.399Z,2.60
2023-01-19T10:31:20.167Z,2.70
2023-01-19T10:36:27.010Z,2.80
2023-01-19T10:41:38.629Z,2.90
2023-01-19T10:46:45.791Z,3.20
2023-01-19T10:51:49.922Z,3.40
2023-01-19T10:56:55.412Z,4.00
2023-01-19T11:02:18.281Z,4.70
2023-01-19T11:07:23.914Z,5.20
2023-01-19T11:12:26.273Z,5.70
2023-01-19T11:17:30.430Z,6.40
2023-01-19T11:22:34.727Z,5.40
2023-01-19T11:27:38.521Z,4.50
2023-01-19T11:32:43.180Z,3.90
2023-01-19T11:37:45.633Z,3.40
2023-01-19T11:42:47.889Z,3.10
2023-01-19T11:47:52.735Z,3.00
2023-01-19T11:53:00.469Z,2.60
2023-01-19T11:58:05.846Z,2.80
2023-01-19T12:03:18.877Z,2.80
2023-01-19T12:08:24.923Z,2.60
2023-01-19T12:13:28.956Z,2.30
2023-01-19T12:18:37.567Z,2.20
2023-01-19T12:23:49.623Z,2.50
2023-01-19T12:28:53.759Z,2.00
2023-01-19T12:34:17.655Z,1.70
2023-01-19T12:39:21.327Z,1.80
2023-01-19T12:44:34.383Z,2.20
2023-01-19T12:49:44.085Z,2.30
2023-01-19T12:54:56.251Z,2.40
2023-01-19T13:00:00.301Z,2.70
2023-01-19T13:05:18.975Z,2.80
2023-01-19T13:10:56.841Z,2.90
2023-01-19T13:16:22.596Z,2.90
2023-01-19T13:21:31.770Z,3.10
2023-01-19T13:26:37.217Z,3.10
2023-01-19T13:31:41.786Z,3.10
2023-01-19T13:36:47.371Z,3.10
2023-01-19T13:41:50.417Z,3.10
2023-01-19T13:46:54.095Z,3.20
2023-01-19T13:52:17.392Z,3.20
2023-01-19T13:57:27.955Z,3.00
2023-01-19T14:02:30.382Z,3.00
2023-01-19T14:07:34.051Z,3.20
2023-01-19T14:12:41.621Z,3.20
2023-01-19T14:18:24.265Z,3.20
2023-01-19T14:23:51.571Z,3.30
2023-01-19T14:28:54.115Z,3.20
2023-01-19T14:33:58.765Z,3.10
2023-01-19T14:39:03.957Z,3.20
2023-01-19T14:44:10.533Z,3.00
2023-01-19T14:49:21.888Z,2.90
2023-01-19T14:54:32.359Z,2.70
2023-01-19T14:59:34.668Z,2.60
2023-01-19T15:04:37.010Z,2.50
2023-01-19T15:09:40.888Z,2.50
2023-01-19T15:14:43.175Z,2.30
2023-01-19T15:19:45.703Z,2.10
2023-01-19T15:24:49.848Z,1.90
2023-01-19T15:29:51.775Z,1.60
2023-01-19T15:34:57.046Z,1.40
2023-01-19T15:40:16.794Z,1.20
2023-01-19T15:45:33.789Z,1.00
2023-01-19T15:50:39.123Z,0.80
2023-01-19T15:55:42.757Z,0.50
2023-01-19T16:00:44.803Z,0.40
2023-01-19T16:05:47.935Z,0.10
2023-01-19T16:10:51.419Z,0.00
2023-01-19T16:15:55.862Z,0.00
2023-01-19T16:20:58.084Z,-0.20
2023-01-19T16:26:05.173Z,-0.20
2023-01-19T16:31:07.461Z,-0.20
2023-01-19T16:36:24.246Z,-0.40
2023-01-19T16:41:28.166Z,-0.60
2023-01-19T16:46:33.998Z,-0.40
2023-01-19T16:51:36.205Z,-0.40
2023-01-19T16:56:40.274Z,-0.50
2023-01-19T17:01:43.916Z,-0.70
2023-01-19T17:06:47.186Z,-0.50
2023-01-19T17:11:51.678Z,-0.60
2023-01-19T17:16:56.278Z,-0.70
2023-01-19T17:21:59.817Z,-0.80
2023-01-19T17:27:03.547Z,-0.90
2023-01-19T17:32:06.963Z,-1.00
2023-01-19T17:37:09.683Z,-1.10
2023-01-19T17:42:14.538Z,-1.30
2023-01-19T17:47:17.916Z,-1.40
2023-01-19T17:52:22.626Z,-1.60
2023-01-19T17:57:29.731Z,-1.80
2023-01-19T18:02:33.242Z,-1.70
2023-01-19T18:07:38.420Z,-1.70
2023-01-19T18:12:44.365Z,-1.70
2023-01-19T18:17:46.980Z,-1.90
2023-01-19T18:22:52.880Z,-2.10
2023-01-19T18:27:58.702Z,-2.30
2023-01-19T18:33:02.612Z,-2.60
2023-01-19T18:38:07.017Z,-2.40
2023-01-19T18:43:14.345Z,-2.10
2023-01-19T18:48:18.376Z,-2.10
2023-01-19T18:53:22.312Z,-2.30
2023-01-19T18:58:30.139Z,-2.60
2023-01-19T19:03:34.541Z,-2.90
2023-01-19T19:08:40.322Z,-3.10
2023-01-19T19:13:47.254Z,-3.20
2023-01-19T19:18:50.988Z,-3.10
2023-01-19T19:23:55.134Z,-3.30
2023-01-19T19:29:05.615Z,-3.30
2023-01-19T19:34:14.219Z,-3.30
2023-01-19T19:39:19.787Z,-3.20
2023-01-19T19:45:03.081Z,-3.40
2023-01-19T19:50:22.941Z,-3.50
2023-01-19T19:55:26.861Z,-3.70
2023-01-19T20:00:32.246Z,-3.80
2023-01-19T20:05:38.755Z,-3.70
2023-01-19T20:10:44.377Z,-3.60
2023-01-19T20:15:49.176Z,-3.90
2023-01-19T20:20:52.972Z,-4.00
2023-01-19T20:25:56.589Z,-3.90
2023-01-19T20:31:11.741Z,-3.90
2023-01-19T20:36:18.041Z,-3.80
2023-01-19T20:41:22.861Z,-3.90
2023-01-19T20:46:29.056Z,-4.00
2023-01-19T20:51:35.463Z,-4.10
2023-01-19T20:56:41.691Z,-4.00
2023-01-19T21:01:49.220Z,-3.80
2023-01-19T21:06:54.216Z,-3.60
2023-01-19T21:11:57.637Z,-3.80
2023-01-19T21:17:02.366Z,-4.00
2023-01-19T21:22:05.078Z,-4.00
2023-01-19T21:27:08.057Z,-3.80
2023-01-19T21:32:12.094Z,-4.00
2023-01-19T21:37:14.241Z,-4.10
2023-01-19T21:42:16.862Z,-4.30
2023-01-19T21:47:21.032Z,-4.20
2023-01-19T21:52:23.263Z,-4.30
2023-01-19T21:57:25.749Z,-4.50
2023-01-19T22:02:38.287Z,-4.40
2023-01-19T22:07:41.296Z,-4.60
2023-01-19T22:12:44.009Z,-4.80
2023-01-19T22:17:47.579Z,-4.50
2023-01-19T22:22:50.109Z,-4.40
2023-01-19T22:27:52.391Z,-4.60
2023-01-19T22:32:56.553Z,-4.70
2023-01-19T22:37:59.003Z,-4.80
2023-01-19T22:43:01.171Z,-4.90
2023-01-19T22:48:04.580Z,-4.70
2023-01-19T22:53:07.004Z,-4.90
2023-01-19T22:58:09.463Z,-5.10
2023-01-19T23:03:15.651Z,-5.20
2023-01-19T23:08:17.942Z,-5.30
2023-01-19T23:13:19.917Z,-5.40
2023-01-19T23:18:23.887Z,-5.40
2023-01-19T23:23:26.386Z,-5.40
2023-01-19T23:28:28.581Z,-5.50
2023-01-19T23:33:32.481Z,-5.50
2023-01-19T23:38:35.070Z,-5.40
2023-01-19T23:43:36.986Z,-5.40
2023-01-19T23:48:41.346Z,-5.50
2023-01-19T23:53:43.587Z,-5.50
2023-01-19T23:58:46.695Z,-5.20
